createdAt,value
2023-03-05T00:00:37.670Z,1018.27
2023-03-05T00:01:37.634Z,1018.26
2023-03-05T00:02:37.613Z,1018.19
2023-03-05T00:03:37.573Z,1018.17
2023-03-05T00:04:37.482Z,1018.16
2023-03-05T00:05:37.435Z,1018.07
2023-03-05T00:06:37.398Z,1018.15
2023-03-05T00:07:37.345Z,1018.14
2023-03-05T00:08:37.298Z,1018.15
2023-03-05T00:09:37.253Z,1018.13
2023-03-05T00:10:37.207Z,1018.15
2023-03-05T00:11:37.154Z,1018.16
2023-03-05T00:12:37.124Z,1018.12
2023-03-05T00:13:37.063Z,1018.14
2023-03-05T00:14:37.033Z,1018.10
2023-03-05T00:15:37.020Z,1018.13
2023-03-05T00:16:36.918Z,1018.10
2023-03-05T00:17:36.869Z,1018.11
2023-03-05T00:18:36.832Z,1018.11
2023-03-05T00:19:36.779Z,1018.08
2023-03-05T00:20:36.731Z,1018.04
2023-03-05T00:21:36.684Z,1018.05
2023-03-05T00:22:36.641Z,1018.06
2023-03-05T00:23:36.609Z,1018.03
2023-03-05T00:24:36.542Z,1018.09
2023-03-05T00:25:36.509Z,1018.07
2023-03-05T00:26:36.451Z,1018.03
2023-03-05T00:27:36.402Z,1018.05
2023-03-05T00:28:36.375Z,1018.03
2023-03-05T00:29:36.311Z,1018.09
2023-03-05T00:30:36.282Z,1018.01
2023-03-05T00:31:36.489Z,1018.04
2023-03-05T00:32:36.272Z,1018.00
2023-03-05T00:33:36.124Z,1018.02
2023-03-05T00:34:36.077Z,1018.02
2023-03-05T00:35:36.169Z,1017.99
2023-03-05T00:36:35.997Z,1017.99
2023-03-05T00:37:35.937Z,1018.00
2023-03-05T00:38:35.900Z,1018.04
2023-03-05T00:39:35.846Z,1018.01
2023-03-05T00:40:35.948Z,1017.98
2023-03-05T00:41:35.751Z,1017.99
2023-03-05T00:42:35.701Z,1017.97
2023-03-05T00:43:35.657Z,1017.95
2023-03-05T00:44:35.613Z,1017.93
2023-03-05T00:45:35.563Z,1017.95
2023-03-05T00:46:35.660Z,1017.91
2023-03-05T00:47:35.471Z,1017.89
2023-03-05T00:48:35.420Z,1017.90
2023-03-05T00:49:35.380Z,1017.85
2023-03-05T00:50:35.326Z,1017.80
2023-03-05T00:51:35.282Z,1017.79
2023-03-05T00:52:35.235Z,1017.82
2023-03-05T00:53:35.196Z,1017.77
2023-03-05T00:54:35.140Z,1017.77
2023-03-05T00:55:35.094Z,1017.77
2023-03-05T00:56:35.043Z,1017.77
2023-03-05T00:57:35.003Z,1017.79
2023-03-05T00:58:34.974Z,1017.77
2023-03-05T00:59:34.909Z,1017.76
2023-03-05T01:00:34.856Z,1017.75
2023-03-05T01:01:34.836Z,1017.74
2023-03-05T01:02:34.918Z,1017.70
2023-03-05T01:03:34.730Z,1017.72
2023-03-05T01:04:34.671Z,1017.70
2023-03-05T01:05:34.689Z,1017.75
2023-03-05T01:06:34.569Z,1017.71
2023-03-05T01:07:34.516Z,1017.71
2023-03-05T01:08:34.464Z,1017.71
2023-03-05T01:09:34.422Z,1017.66
2023-03-05T01:10:34.374Z,1017.68
2023-03-05T01:11:34.327Z,1017.67
2023-03-05T01:12:34.278Z,1017.65
2023-03-05T01:13:34.234Z,1017.67
2023-03-05T01:14:34.178Z,1017.62
2023-03-05T01:15:34.146Z,1017.63
2023-03-05T01:16:34.157Z,1017.66
2023-03-05T01:17:34.091Z,1017.66
2023-03-05T01:18:34.079Z,1017.66
2023-03-05T01:19:34.003Z,1017.64
2023-03-05T01:20:33.893Z,1017.62
2023-03-05T01:21:33.847Z,1017.64
2023-03-05T01:22:33.796Z,1017.62
2023-03-05T01:23:33.752Z,1017.64
2023-03-05T01:24:33.702Z,1017.64
2023-03-05T01:25:33.655Z,1017.63
2023-03-05T01:26:33.610Z,1017.68
2023-03-05T01:27:33.560Z,1017.68
2023-03-05T01:28:33.520Z,1017.65
2023-03-05T01:29:33.471Z,1017.66
2023-03-05T01:30:33.432Z,1017.64
2023-03-05T01:31:33.458Z,1017.61
2023-03-05T01:32:34.806Z,1017.48
2023-03-05T01:33:33.277Z,1017.51
2023-03-05T01:34:33.249Z,1017.51
2023-03-05T01:35:33.229Z,1017.48
2023-03-05T01:36:33.133Z,1017.49
2023-03-05T01:37:33.088Z,1017.46
2023-03-05T01:38:33.039Z,1017.41
2023-03-05T01:39:32.997Z,1017.31
2023-03-05T01:40:32.946Z,1017.39
2023-03-05T01:41:32.899Z,1017.38
2023-03-05T01:42:32.850Z,1017.39
2023-03-05T01:43:32.805Z,1017.35
2023-03-05T01:44:32.769Z,1017.37
2023-03-05T01:45:32.785Z,1017.31
2023-03-05T01:46:32.990Z,1017.29
2023-03-05T01:47:32.638Z,1017.29
2023-03-05T01:48:32.571Z,1017.27
2023-03-05T01:49:32.538Z,1017.31
2023-03-05T01:50:32.492Z,1017.25
2023-03-05T01:51:32.437Z,1017.29
2023-03-05T01:52:32.380Z,1017.27
2023-03-05T01:53:32.366Z,1017.27
2023-03-05T01:54:32.300Z,1017.26
2023-03-05T01:55:32.254Z,1017.21
2023-03-05T01:56:32.216Z,1017.23
2023-03-05T01:57:32.145Z,1017.22
2023-03-05T01:58:32.093Z,1017.20
2023-03-05T01:59:32.073Z,1017.20
2023-03-05T02:00:31.996Z,1017.22
2023-03-05T02:01:32.002Z,1017.16
2023-03-05T02:02:31.920Z,1017.14
2023-03-05T02:03:31.897Z,1017.14
2023-03-05T02:04:31.807Z,1017.15
2023-03-05T02:05:31.764Z,1017.11
2023-03-05T02:06:31.736Z,1017.13
2023-03-05T02:07:31.673Z,1017.11
2023-03-05T02:08:31.620Z,1017.09
2023-03-05T02:09:31.576Z,1017.07
2023-03-05T02:10:31.533Z,1017.07
2023-03-05T02:11:31.481Z,1017.00
2023-03-05T02:12:31.435Z,1017.00
2023-03-05T02:13:31.389Z,1017.03
2023-03-05T02:14:31.366Z,1016.98
2023-03-05T02:15:31.296Z,1016.98
2023-03-05T02:16:31.276Z,1016.96
2023-03-05T02:17:31.201Z,1016.92
2023-03-05T02:18:31.170Z,1016.89
2023-03-05T02:19:31.113Z,1016.90
2023-03-05T02:20:31.063Z,1016.91
2023-03-05T02:21:31.015Z,1016.91
2023-03-05T02:22:30.979Z,1016.86
2023-03-05T02:23:30.933Z,1016.86
2023-03-05T02:24:30.868Z,1016.80
2023-03-05T02:25:30.838Z,1016.79
2023-03-05T02:26:30.786Z,1016.77
2023-03-05T02:27:30.729Z,1016.81
2023-03-05T02:28:30.679Z,1016.79
2023-03-05T02:29:30.644Z,1016.80
2023-03-05T02:30:30.584Z,1016.75
2023-03-05T02:31:30.571Z,1016.75
2023-03-05T02:32:30.525Z,1016.77
2023-03-05T02:33:30.442Z,1016.73
2023-03-05T02:34:30.392Z,1016.72
2023-03-05T02:35:30.380Z,1016.69
2023-03-05T02:36:30.304Z,1016.70
2023-03-05T02:37:30.251Z,1016.63
2023-03-05T02:38:30.222Z,1016.67
2023-03-05T02:39:30.162Z,1016.67
2023-03-05T02:40:30.123Z,1016.67
2023-03-05T02:41:30.469Z,1016.63
2023-03-05T02:42:30.217Z,1016.68
2023-03-05T02:43:29.987Z,1016.68
2023-03-05T02:44:29.925Z,1016.66
2023-03-05T02:45:29.909Z,1016.64
2023-03-05T02:46:29.843Z,1016.65
2023-03-05T02:47:29.777Z,1016.62
2023-03-05T02:48:29.731Z,1016.62
2023-03-05T02:49:29.685Z,1016.63
2023-03-05T02:50:29.646Z,1016.58
2023-03-05T02:51:29.591Z,1016.60
2023-03-05T11:09:43.496Z,1012.98
2023-03-05T11:10:43.422Z,1012.97
2023-03-05T11:11:43.367Z,1012.92
2023-03-05T11:12:43.309Z,1012.94
2023-03-05T11:13:43.259Z,1012.90
2023-03-05T11:14:43.207Z,1012.89
2023-03-05T11:15:43.214Z,1012.91
2023-03-05T11:16:43.100Z,1012.91
2023-03-05T11:17:43.064Z,1012.83
2023-03-05T11:18:43.008Z,1012.91
2023-03-05T11:19:42.951Z,1012.89
2023-03-05T11:20:42.900Z,1012.89
2023-03-05T11:21:42.853Z,1012.86
2023-03-05T11:22:42.805Z,1012.84
2023-03-05T11:23:42.753Z,1012.82
2023-03-05T11:24:42.707Z,1012.82
2023-03-05T11:25:42.692Z,1012.84
2023-03-05T11:26:42.609Z,1012.81
2023-03-05T11:27:42.564Z,1012.77
2023-03-05T11:28:42.514Z,1012.80
2023-03-05T11:29:42.470Z,1012.77
2023-03-05T11:30:42.475Z,1012.76
2023-03-05T11:31:42.379Z,1012.78
2023-03-05T11:32:42.324Z,1012.79
2023-03-05T11:33:42.281Z,1012.77
2023-03-05T11:34:42.235Z,1012.81
2023-03-05T11:35:42.332Z,1012.76
2023-03-05T11:36:42.135Z,1012.72
2023-03-05T11:37:42.094Z,1012.76
2023-03-05T11:38:42.048Z,1012.75
2023-03-05T11:39:42.004Z,1012.73
2023-03-05T11:40:41.950Z,1012.70
2023-03-05T11:41:41.933Z,1012.69
2023-03-05T11:42:41.859Z,1012.66
2023-03-05T11:43:41.811Z,1012.64
2023-03-05T11:44:41.767Z,1012.63
2023-03-05T11:45:41.721Z,1012.64
2023-03-05T11:47:41.629Z,1012.59
2023-03-05T11:48:41.581Z,1012.58
2023-03-05T11:49:41.536Z,1012.58
2023-03-05T11:50:41.501Z,1012.57
2023-03-05T11:51:41.463Z,1012.53
2023-03-05T11:52:41.421Z,1012.52
2023-03-05T11:53:41.396Z,1012.51
2023-03-05T11:54:41.314Z,1012.55
2023-03-05T11:55:41.276Z,1012.51
2023-03-05T11:56:41.223Z,1012.54
2023-03-05T11:57:41.201Z,1012.48
2023-03-05T11:58:41.133Z,1012.46
2023-03-05T11:59:41.097Z,1012.42
2023-03-05T12:00:41.043Z,1012.39
2023-03-05T12:01:41.033Z,1012.37
2023-03-05T12:02:40.985Z,1012.35
2023-03-05T12:03:40.930Z,1012.40
2023-03-05T12:04:40.865Z,1012.34
2023-03-05T12:05:40.822Z,1012.34
2023-03-05T12:06:40.837Z,1012.33
2023-03-05T12:07:40.923Z,1012.30
2023-03-05T12:08:40.685Z,1012.29
2023-03-05T12:09:41.119Z,1012.28
2023-03-05T12:10:40.657Z,1012.23
2023-03-05T12:11:40.905Z,1012.20
2023-03-05T12:12:40.886Z,1012.21
2023-03-05T12:13:42.472Z,1012.16
2023-03-05T12:14:40.591Z,1012.16
2023-03-05T12:15:41.074Z,1012.14
2023-03-05T12:16:40.338Z,1012.11
2023-03-05T12:17:40.490Z,1012.12
2023-03-05T12:18:40.760Z,1012.13
2023-03-05T12:19:40.533Z,1012.06
2023-03-05T12:20:40.182Z,1012.07
2023-03-05T12:21:40.103Z,1012.02
2023-03-05T12:22:40.846Z,1012.05
2023-03-05T12:23:40.016Z,1011.98
2023-03-05T12:24:39.968Z,1012.04
2023-03-05T12:25:39.925Z,1012.01
2023-03-05T12:26:39.882Z,1011.97
2023-03-05T12:27:39.836Z,1011.95
2023-03-05T12:28:39.794Z,1011.91
2023-03-05T12:29:40.092Z,1011.94
2023-03-05T12:30:39.708Z,1011.91
2023-03-05T12:31:39.780Z,1011.91
2023-03-05T12:32:39.712Z,1011.90
2023-03-05T12:33:39.601Z,1011.89
2023-03-05T12:34:39.524Z,1011.87
2023-03-05T12:35:39.814Z,1011.89
2023-03-05T12:36:39.856Z,1011.85
2023-03-05T12:37:39.401Z,1011.83
2023-03-05T12:38:39.374Z,1011.87
2023-03-05T12:39:39.320Z,1011.81
2023-03-05T12:40:39.389Z,1011.80
2023-03-05T12:41:39.261Z,1011.75
2023-03-05T12:42:39.182Z,1011.73
2023-03-05T12:43:39.132Z,1011.74
2023-03-05T12:44:39.072Z,1011.70
2023-03-05T12:45:39.048Z,1011.70
2023-03-05T12:46:39.327Z,1011.68
2023-03-05T12:47:40.523Z,1011.68
2023-03-05T12:48:38.957Z,1011.59
2023-03-05T12:49:38.881Z,1011.59
2023-03-05T12:50:38.877Z,1011.50
2023-03-05T12:51:38.781Z,1011.52
2023-03-05T12:52:38.732Z,1011.50
2023-03-05T12:53:38.868Z,1011.47
2023-03-05T12:54:38.627Z,1011.45
2023-03-05T12:55:38.576Z,1011.46
2023-03-05T12:56:38.553Z,1011.45
2023-03-05T12:57:38.512Z,1011.37
2023-03-05T12:58:38.466Z,1011.38
2023-03-05T12:59:38.417Z,1011.39
2023-03-05T13:00:38.423Z,1011.40
2023-03-05T13:01:38.340Z,1011.37
2023-03-05T13:02:38.594Z,1011.32
2023-03-05T13:03:38.272Z,1011.32
2023-03-05T13:04:38.195Z,1011.27
2023-03-05T13:05:38.154Z,1011.32
2023-03-05T13:06:38.087Z,1011.28
2023-03-05T13:07:38.049Z,1011.30
2023-03-05T13:08:38.035Z,1011.23
2023-03-05T13:09:37.950Z,1011.28
2023-03-05T13:10:37.927Z,1011.21
2023-03-05T13:11:37.980Z,1011.24
2023-03-05T13:12:37.829Z,1011.20
2023-03-05T13:13:37.786Z,1011.18
2023-03-05T13:14:37.754Z,1011.17
2023-03-05T13:15:37.699Z,1011.15
2023-03-05T13:16:37.649Z,1011.16
2023-03-05T13:17:37.604Z,1011.14
2023-03-05T13:18:38.836Z,1011.11
2023-03-05T13:19:37.519Z,1011.12
2023-03-05T13:20:37.463Z,1011.11
2023-03-05T13:21:37.407Z,1011.10
2023-03-05T13:22:37.382Z,1011.11
2023-03-05T13:23:37.343Z,1011.09
2023-03-05T13:24:37.274Z,1011.08
2023-03-05T13:25:37.261Z,1011.06
2023-03-05T13:26:37.201Z,1011.05
2023-03-05T13:27:37.138Z,1011.02
2023-03-05T13:28:37.102Z,1011.00
2023-03-05T13:29:37.372Z,1011.04
2023-03-05T13:30:37.034Z,1011.01
2023-03-05T13:31:37.003Z,1010.96
2023-03-05T13:32:37.016Z,1010.95
2023-03-05T13:33:36.922Z,1010.94
2023-03-05T13:34:46.627Z,1010.94
2023-03-05T13:35:36.806Z,1010.89
2023-03-05T13:36:36.756Z,1010.87
2023-03-05T13:37:36.688Z,1010.84
2023-03-05T13:38:36.647Z,1010.85
2023-03-05T13:39:36.604Z,1010.82
2023-03-05T13:40:36.554Z,1010.80
2023-03-05T13:41:36.527Z,1010.81
2023-03-05T13:42:36.480Z,1010.80
2023-03-05T13:43:36.428Z,1010.77
2023-03-05T13:44:36.393Z,1010.77
2023-03-05T13:45:36.403Z,1010.73
2023-03-05T13:46:36.300Z,1010.74
2023-03-05T13:47:36.263Z,1010.75
2023-03-05T13:48:36.214Z,1010.74
2023-03-05T13:49:36.181Z,1010.73
2023-03-05T13:50:36.132Z,1010.71
2023-03-05T13:51:36.077Z,1010.70
2023-03-05T13:52:36.032Z,1010.69
2023-03-05T13:53:35.972Z,1010.66
2023-03-05T13:54:35.936Z,1010.63
2023-03-05T13:55:35.884Z,1010.59
2023-03-05T13:56:35.851Z,1010.63
2023-03-05T13:57:35.804Z,1010.59
2023-03-05T13:58:35.748Z,1010.59
2023-03-05T13:59:35.702Z,1010.57
2023-03-05T14:00:35.658Z,1010.59
2023-03-05T14:01:35.984Z,1010.63
2023-03-05T14:02:35.896Z,1010.56
2023-03-05T14:03:35.524Z,1010.53
2023-03-05T14:04:35.553Z,1010.54
2023-03-05T14:05:35.455Z,1010.59
2023-03-05T14:06:35.396Z,1010.59
2023-03-05T14:07:35.363Z,1010.55
2023-03-05T14:08:35.321Z,1010.50
2023-03-05T14:09:35.257Z,1010.53
2023-03-05T14:10:35.219Z,1010.52
2023-03-05T14:11:35.168Z,1010.50
2023-03-05T14:12:35.136Z,1010.45
2023-03-05T14:13:35.092Z,1010.49
2023-03-05T14:14:35.038Z,1010.46
2023-03-05T14:15:34.998Z,1010.50
2023-03-05T14:16:34.980Z,1010.47
2023-03-05T14:17:34.920Z,1010.43
2023-03-05T14:18:34.870Z,1010.36
2023-03-05T14:19:34.840Z,1010.38
2023-03-05T14:20:34.770Z,1010.39
2023-03-05T14:21:34.746Z,1010.41
2023-03-05T14:22:34.703Z,1010.41
2023-03-05T14:23:34.637Z,1010.31
2023-03-05T14:24:34.922Z,1010.34
2023-03-05T14:25:34.569Z,1010.29
2023-03-05T14:26:34.525Z,1010.27
2023-03-05T14:27:34.459Z,1010.22
2023-03-05T14:28:34.419Z,1010.23
2023-03-05T14:29:34.375Z,1010.23
2023-03-05T14:30:34.372Z,1010.23
2023-03-05T14:31:34.279Z,1010.24
2023-03-05T14:32:34.277Z,1010.19
2023-03-05T14:33:34.216Z,1010.14
2023-03-05T14:34:34.168Z,1010.13
2023-03-05T14:35:34.384Z,1010.10
2023-03-05T14:36:34.065Z,1010.10
2023-03-05T14:37:34.032Z,1010.14
2023-03-05T14:38:34.009Z,1010.09
2023-03-05T14:39:34.009Z,1010.11
2023-03-05T14:40:33.882Z,1010.10
2023-03-05T14:41:33.852Z,1010.02
2023-03-05T14:42:33.807Z,1010.04
2023-03-05T14:43:33.743Z,1010.00
2023-03-05T14:44:33.927Z,1010.02
2023-03-05T14:45:33.688Z,1010.00
2023-03-05T14:46:33.663Z,1009.98
2023-03-05T14:47:33.569Z,1009.97
2023-03-05T14:48:33.544Z,1009.92
2023-03-05T14:49:33.482Z,1009.92
2023-03-05T14:50:33.452Z,1009.90
2023-03-05T14:51:33.406Z,1009.87
2023-03-05T14:52:33.369Z,1009.87
2023-03-05T14:53:33.320Z,1009.84
2023-03-05T14:54:33.261Z,1009.80
2023-03-05T14:55:33.232Z,1009.80
2023-03-05T14:56:33.174Z,1009.76
2023-03-05T14:57:33.153Z,1009.74
2023-03-05T14:58:33.097Z,1009.78
2023-03-05T14:59:33.065Z,1009.74
2023-03-05T15:00:33.017Z,1009.75
2023-03-05T15:01:32.985Z,1009.73
2023-03-05T15:02:32.968Z,1009.69
2023-03-05T15:03:32.880Z,1009.69
2023-03-05T15:04:32.833Z,1009.67
2023-03-05T15:05:32.781Z,1009.67
2023-03-05T15:06:32.757Z,1009.62
2023-03-05T15:07:32.678Z,1009.60
2023-03-05T15:08:32.717Z,1009.57
2023-03-05T15:09:32.633Z,1009.56
2023-03-05T15:10:32.568Z,1009.58
2023-03-05T15:11:32.499Z,1009.60
2023-03-05T15:12:32.477Z,1009.56
2023-03-05T15:13:32.427Z,1009.56
2023-03-05T15:14:32.391Z,1009.56
2023-03-05T15:15:32.369Z,1009.54
2023-03-05T15:16:33.084Z,1009.53
2023-03-05T15:17:32.231Z,1009.53
2023-03-05T15:18:32.186Z,1009.50
2023-03-05T15:19:32.157Z,1009.48
2023-03-05T15:20:32.120Z,1009.47
2023-03-05T15:21:32.051Z,1009.47
2023-03-05T15:22:32.031Z,1009.47
2023-03-05T15:23:31.976Z,1009.46
2023-03-05T15:24:31.940Z,1009.47
2023-03-05T15:25:31.904Z,1009.46
2023-03-05T15:26:31.836Z,1009.44
2023-03-05T15:27:31.804Z,1009.44
2023-03-05T15:28:31.741Z,1009.40
2023-03-05T15:29:32.022Z,1009.42
2023-03-05T15:30:31.649Z,1009.41
2023-03-05T15:31:31.628Z,1009.39
2023-03-05T15:32:31.622Z,1009.36
2023-03-05T15:33:31.540Z,1009.32
2023-03-05T15:34:31.487Z,1009.30
2023-03-05T15:35:31.466Z,1009.29
2023-03-05T15:36:33.508Z,1009.25
2023-03-05T15:37:31.357Z,1009.22
2023-03-05T15:38:31.308Z,1009.23
2023-03-05T15:39:31.268Z,1009.22
2023-03-05T15:40:31.220Z,1009.19
2023-03-05T15:41:31.189Z,1009.19
2023-03-05T15:42:31.127Z,1009.21
2023-03-05T15:43:31.073Z,1009.18
2023-03-05T15:44:31.044Z,1009.19
2023-03-05T15:45:30.977Z,1009.19
2023-03-05T15:46:31.048Z,1009.17
2023-03-05T15:47:33.396Z,1009.13
2023-03-05T15:48:30.870Z,1009.13
2023-03-05T15:49:31.125Z,1009.11
2023-03-05T15:50:30.757Z,1009.14
2023-03-05T15:51:30.729Z,1009.14
2023-03-05T15:52:30.681Z,1009.08
2023-03-05T15:53:30.944Z,1009.09
2023-03-05T15:54:30.591Z,1009.13
2023-03-05T15:55:30.549Z,1009.07
2023-03-05T15:56:30.500Z,1009.07
2023-03-05T15:57:30.764Z,1008.99
2023-03-05T15:58:30.412Z,1009.01
2023-03-05T15:59:30.371Z,1009.01
2023-03-05T16:00:30.317Z,1008.93
2023-03-05T16:01:30.343Z,1008.96
2023-03-05T16:02:30.233Z,1008.95
2023-03-05T16:03:30.196Z,1008.98
2023-03-05T16:04:30.118Z,1008.97
2023-03-05T16:05:30.100Z,1008.95
2023-03-05T16:06:30.044Z,1008.89
2023-03-05T16:07:31.421Z,1008.91
2023-03-05T16:08:29.941Z,1008.90
2023-03-05T16:09:29.911Z,1008.82
2023-03-05T16:10:29.874Z,1008.80
2023-03-05T16:11:29.827Z,1008.85
2023-03-05T16:12:29.772Z,1008.79
2023-03-05T16:13:29.753Z,1008.78
2023-03-05T16:14:29.690Z,1008.79
2023-03-05T16:15:30.826Z,1008.79
2023-03-05T16:16:29.633Z,1008.76
2023-03-05T16:17:29.548Z,1008.75
2023-03-05T16:18:29.500Z,1008.81
2023-03-05T16:19:29.457Z,1008.76
2023-03-05T16:20:29.420Z,1008.76
2023-03-05T16:21:29.351Z,1008.76
2023-03-05T16:22:29.324Z,1008.74
2023-03-05T16:23:29.276Z,1008.74
2023-03-05T16:24:29.233Z,1008.76
2023-03-05T16:25:29.491Z,1008.73
2023-03-05T16:26:29.178Z,1008.73
2023-03-05T16:27:29.073Z,1008.71
2023-03-05T16:28:29.047Z,1008.71
2023-03-05T16:29:30.794Z,1008.68
2023-03-05T16:30:28.957Z,1008.64
2023-03-05T16:31:28.926Z,1008.68
2023-03-05T16:32:28.947Z,1008.63
2023-03-05T16:33:28.821Z,1008.61
2023-03-05T16:34:28.776Z,1008.59
2023-03-05T16:35:28.774Z,1008.60
2023-03-05T16:36:28.688Z,1008.61
2023-03-05T16:37:28.949Z,1008.58
2023-03-05T16:38:28.583Z,1008.60
2023-03-05T16:39:28.544Z,1008.57
2023-03-05T16:40:44.292Z,1008.54
2023-03-05T16:41:28.456Z,1008.56
2023-03-05T16:42:28.394Z,1008.53
2023-03-05T16:43:28.364Z,1008.58
2023-03-05T16:44:28.417Z,1008.50
2023-03-05T16:46:28.309Z,1008.49
2023-03-05T16:47:28.171Z,1008.52
2023-03-05T16:48:28.132Z,1008.52
2023-03-05T16:49:28.075Z,1008.48
2023-03-05T16:50:28.043Z,1008.45
2023-03-05T16:51:27.999Z,1008.47
2023-03-05T16:52:27.944Z,1008.45
2023-03-05T16:53:27.894Z,1008.48
2023-03-05T16:54:27.831Z,1008.46
2023-03-05T16:55:27.790Z,1008.45
2023-03-05T16:56:27.757Z,1008.49
2023-03-05T16:57:27.896Z,1008.48
2023-03-05T16:58:27.678Z,1008.45
2023-03-05T16:59:27.597Z,1008.44
2023-03-05T17:00:27.574Z,1008.46
2023-03-05T17:01:27.524Z,1008.43
2023-03-05T17:02:27.490Z,1008.42
2023-03-05T17:03:27.436Z,1008.41
2023-03-05T17:04:27.615Z,1008.39
2023-03-05T17:05:27.372Z,1008.37
2023-03-05T17:06:27.279Z,1008.36
2023-03-05T17:07:27.252Z,1008.36
2023-03-05T17:08:27.210Z,1008.34
2023-03-05T17:09:27.160Z,1008.37
2023-03-05T17:10:27.098Z,1008.33
2023-03-05T17:11:27.065Z,1008.35
2023-03-05T17:12:27.207Z,1008.37
2023-03-05T17:13:26.967Z,1008.31
2023-03-05T17:14:27.009Z,1008.36
2023-03-05T17:15:26.876Z,1008.32
2023-03-05T17:16:26.862Z,1008.34
2023-03-05T17:17:26.766Z,1008.33
2023-03-05T17:18:26.741Z,1008.34
2023-03-05T17:19:26.695Z,1008.39
2023-03-05T17:20:26.652Z,1008.30
2023-03-05T17:21:26.596Z,1008.31
2023-03-05T17:22:26.558Z,1008.33
2023-03-05T17:23:26.511Z,1008.29
2023-03-05T17:24:26.440Z,1008.32
2023-03-05T17:25:26.411Z,1008.31
2023-03-05T17:26:26.679Z,1008.31
2023-03-05T17:27:26.301Z,1008.28
2023-03-05T17:28:26.293Z,1008.27
2023-03-05T17:29:26.210Z,1008.23
2023-03-05T17:30:26.165Z,1008.27
2023-03-05T17:31:26.140Z,1008.22
2023-03-05T17:32:26.141Z,1008.21
2023-03-05T17:33:26.403Z,1008.23
2023-03-05T17:34:35.596Z,1008.23
2023-03-05T17:35:25.978Z,1008.14
2023-03-05T17:36:25.980Z,1008.24
2023-03-05T17:37:25.868Z,1008.21
2023-03-05T17:38:25.848Z,1008.19
2023-03-05T17:39:25.761Z,1008.22
2023-03-05T17:40:25.700Z,1008.21
2023-03-05T17:41:25.659Z,1008.19
2023-03-05T17:42:25.608Z,1008.19
2023-03-05T17:43:25.561Z,1008.21
2023-03-05T17:44:25.515Z,1008.24
2023-03-05T17:45:25.624Z,1008.21
2023-03-05T17:46:25.427Z,1008.23
2023-03-05T17:47:25.371Z,1008.20
2023-03-05T17:48:25.332Z,1008.23
2023-03-05T17:49:25.299Z,1008.22
2023-03-05T17:50:25.258Z,1008.24
2023-03-05T17:51:25.192Z,1008.22
2023-03-05T17:52:25.145Z,1008.24
2023-03-05T17:53:25.097Z,1008.28
2023-03-05T17:54:25.067Z,1008.24
2023-03-05T17:55:25.028Z,1008.23
2023-03-05T17:56:26.688Z,1008.23
2023-03-05T17:57:25.234Z,1008.22
2023-03-05T17:58:24.863Z,1008.23
2023-03-05T17:59:24.837Z,1008.22
2023-03-05T18:00:24.770Z,1008.21
2023-03-05T18:01:24.847Z,1008.22
2023-03-05T18:02:24.677Z,1008.22
2023-03-05T18:03:24.711Z,1008.23
2023-03-05T18:04:24.935Z,1008.26
2023-03-05T18:05:24.540Z,1008.23
2023-03-05T18:06:24.511Z,1008.23
2023-03-05T18:07:24.444Z,1008.23
2023-03-05T18:08:24.404Z,1008.23
2023-03-05T18:09:24.367Z,1008.20
2023-03-05T18:10:24.327Z,1008.22
2023-03-05T18:11:24.263Z,1008.14
2023-03-05T18:12:24.237Z,1008.19
2023-03-05T18:13:24.192Z,1008.13
2023-03-05T18:14:24.122Z,1008.14
2023-03-05T18:15:24.090Z,1008.14
2023-03-05T18:16:24.044Z,1008.15
2023-03-05T18:17:23.980Z,1008.13
2023-03-05T18:18:23.936Z,1008.11
2023-03-05T18:19:23.905Z,1008.13
2023-03-05T18:20:23.855Z,1008.13
2023-03-05T18:21:23.794Z,1008.11
2023-03-05T18:22:23.805Z,1008.07
2023-03-05T18:23:23.725Z,1008.12
2023-03-05T18:24:23.676Z,1008.10
2023-03-05T18:25:23.628Z,1008.10
2023-03-05T18:26:23.584Z,1008.08
2023-03-05T18:27:23.841Z,1008.09
2023-03-05T18:28:23.494Z,1008.09
2023-03-05T18:29:23.756Z,1008.06
2023-03-05T18:30:23.403Z,1008.04
2023-03-05T18:31:23.332Z,1008.03
2023-03-05T18:32:23.356Z,1008.01
2023-03-05T18:33:23.233Z,1008.03
2023-03-05T18:34:23.192Z,1008.02
2023-03-05T18:35:23.194Z,1007.97
2023-03-05T18:36:23.423Z,1007.99
2023-03-05T18:37:23.045Z,1007.98
2023-03-05T18:38:23.021Z,1007.97
2023-03-05T18:39:22.961Z,1007.93
2023-03-05T18:40:22.907Z,1007.93
2023-03-05T18:41:23.339Z,1007.92
2023-03-05T18:42:22.832Z,1007.89
2023-03-05T18:43:22.807Z,1007.89
2023-03-05T18:44:22.722Z,1007.90
2023-03-05T18:45:22.678Z,1007.88
2023-03-05T18:46:22.719Z,1007.90
2023-03-05T18:47:22.788Z,1007.89
2023-03-05T18:48:22.555Z,1007.89
2023-03-05T18:49:22.483Z,1007.87
2023-03-05T18:50:22.452Z,1007.89
2023-03-05T18:51:22.392Z,1007.88
2023-03-05T18:52:22.349Z,1007.85
2023-03-05T18:53:22.311Z,1007.85
2023-03-05T18:54:22.292Z,1007.85
2023-03-05T18:55:22.204Z,1007.83
2023-03-05T18:56:22.164Z,1007.81
2023-03-05T18:57:22.116Z,1007.81
2023-03-05T18:58:23.021Z,1007.83
2023-03-05T18:59:22.021Z,1007.78
2023-03-05T19:00:21.977Z,1007.79
2023-03-05T19:01:21.987Z,1007.78
2023-03-05T19:02:21.905Z,1007.76
2023-03-05T19:03:23.073Z,1007.77
2023-03-05T19:04:21.824Z,1007.75
2023-03-05T19:05:21.750Z,1007.77
2023-03-05T19:06:21.694Z,1007.73
2023-03-05T19:07:21.724Z,1007.74
2023-03-05T19:08:21.605Z,1007.75
2023-03-05T19:09:21.560Z,1007.79
2023-03-05T19:10:21.532Z,1007.74
2023-03-05T19:11:21.463Z,1007.75
2023-03-05T19:12:21.417Z,1007.74
2023-03-05T19:13:21.368Z,1007.74
2023-03-05T19:14:21.329Z,1007.69
2023-03-05T19:15:21.278Z,1007.73
2023-03-05T19:16:21.252Z,1007.69
2023-03-05T19:17:21.179Z,1007.74
2023-03-05T19:18:21.135Z,1007.72
2023-03-05T19:19:21.105Z,1007.68
2023-03-05T19:20:21.042Z,1007.63
2023-03-05T19:21:21.018Z,1007.65
2023-03-05T19:22:20.954Z,1007.62
2023-03-05T19:23:20.916Z,1007.63
2023-03-05T19:24:20.858Z,1007.62
2023-03-05T19:25:20.825Z,1007.64
2023-03-05T19:27:20.739Z,1007.61
2023-03-05T19:28:20.670Z,1007.59
2023-03-05T19:29:20.621Z,1007.63
2023-03-05T19:30:20.580Z,1007.60
2023-03-05T19:31:20.616Z,1007.61
2023-03-05T19:32:20.559Z,1007.55
2023-03-05T19:33:20.438Z,1007.55
2023-03-05T19:34:20.385Z,1007.56
2023-03-05T19:35:20.423Z,1007.57
2023-03-05T19:36:20.292Z,1007.50
2023-03-05T19:37:20.249Z,1007.47
2023-03-05T19:38:20.214Z,1007.49
2023-03-05T19:39:20.175Z,1007.51
2023-03-05T19:40:20.102Z,1007.44
2023-03-05T19:41:20.055Z,1007.47
2023-03-05T19:42:20.032Z,1007.46
2023-03-05T19:43:19.987Z,1007.43
2023-03-05T19:44:19.930Z,1007.45
2023-03-05T19:45:19.871Z,1007.44
2023-03-05T19:46:19.866Z,1007.40
2023-03-05T19:47:20.103Z,1007.38
2023-03-05T19:48:20.064Z,1007.39
2023-03-05T19:49:20.006Z,1007.36
2023-03-05T19:50:19.635Z,1007.36
2023-03-05T19:51:19.607Z,1007.37
2023-03-05T19:52:19.558Z,1007.34
2023-03-05T19:53:19.492Z,1007.35
2023-03-05T19:54:19.441Z,1007.40
2023-03-05T19:55:19.428Z,1007.35
2023-03-05T19:56:19.354Z,1007.34
2023-03-05T19:57:19.304Z,1007.36
2023-03-05T19:58:19.255Z,1007.28
2023-03-05T19:59:19.244Z,1007.30
2023-03-05T20:00:19.160Z,1007.34
2023-03-05T20:01:19.191Z,1007.30
2023-03-05T20:02:19.428Z,1007.30
2023-03-05T20:03:19.016Z,1007.26
2023-03-05T20:04:19.317Z,1007.28
2023-03-05T20:05:18.957Z,1007.27
2023-03-05T20:06:18.879Z,1007.29
2023-03-05T20:07:18.829Z,1007.27
2023-03-05T20:08:18.805Z,1007.26
2023-03-05T20:09:19.059Z,1007.21
2023-03-05T20:10:18.710Z,1007.20
2023-03-05T20:11:18.641Z,1007.19
2023-03-05T20:12:18.595Z,1007.21
2023-03-05T20:13:18.568Z,1007.16
2023-03-05T20:14:18.844Z,1007.19
2023-03-05T20:15:18.484Z,1007.13
2023-03-05T20:16:18.487Z,1007.16
2023-03-05T20:17:18.362Z,1007.16
2023-03-05T20:18:18.338Z,1007.15
2023-03-05T20:19:18.299Z,1007.12
2023-03-05T20:20:18.230Z,1007.17
2023-03-05T20:21:18.176Z,1007.18
2023-03-05T20:22:18.127Z,1007.15
2023-03-05T20:23:18.093Z,1007.13
2023-03-05T20:24:18.361Z,1007.11
2023-03-05T20:25:17.988Z,1007.09